Terminal Aerodrome Forecast
Issued by NWS Boston, MA

Current Version | Previous Version | Text Only | Print | Product List | Glossary On
Versions: 1 2 3 4 5 6 7 8 9 10 11 12 13 14 15 16 17 18 19 20 21 22 23 24 25 26 27 28 29 30 31 32 33 34 35 36 37 38 39 40 41 42 43 44 45 46 47
000
FTUS41 KBOX 210838 AAR
TAFPVD
TAF AMD
KPVD 210838Z 2109/2206 10003KT 1/4SM FG VV003
     FM211400 14003KT 3SM BR BKN008
     FM211500 17003KT P6SM OVC020
     FM211800 20009KT P6SM BKN008
     FM220400 22007KT 1/2SM FG BKN003
     FM220500 22007KT 5SM BR OVC003=

USA.gov is the U.S. government's official web portal to all federal, state and local government web resources and services.